Terminal Aerodrome Forecast
Issued by NWS La Crosse, WI

Home | Current Version | Previous Version | Text Only | Print | Product List | Glossary On
Versions: 1 2 3 4 5 6 7 8 9 10 11 12 13 14 15 16 17 18 19
000
FTUS43 KARX 210520 CCA
TAFRST
TAF COR
KRST 210520Z 2105/2124 28014KT P6SM SKC
      TEMPO 2106/2107 OVC006
     FM210900 29008KT 2SM BR FEW004
     FM211100 25006KT 1/2SM FG VV004
     FM211600 21013KT P6SM SCT180=

USA.gov is the U.S. government's official web portal to all federal, state and local government web resources and services.